Latest Coastal Weather Observations for Green Cape

IDN60701

Issued at 11:12 am EDT Thursday 29 January 2015 (issued every 10 minutes, with the page automatically refreshed every 10 minutes)

About coastal observations | Map of coastal stations | Coastal observations for NSW | Marine services | Other Formats
Station Details ID: 069137 Name: GREEN CAPE AWS Lat: -37.26 Lon: 150.05 Height: 19.4 m
Data from the previous 72 hours. | See also: Recent months at Green Cape
Date/Time
EDT
Temp

°C
Wind Pressure Rain
since 9am
mm
Weather Cloud Vis
km
Sea
Height
m
Swell
Dir
 
Speed
knots
Gust
knots
hPa Trend Height
m
Period
s
Dir
29/11:00am 16.0 WSW 12 15 1015.3 - 2.0 - - - - - - -
29/10:30am 15.2 WSW 15 18 1015.2 - 1.8 - - - - - - -
29/10:00am 14.8 SSW 12 14 1015.3 - 1.8 - - - - - - -
29/09:45am 13.9 SSW 14 19 1015.6 - 1.8 - - - - - - -
29/09:30am 14.1 S 20 28 1015.5 - 1.4 - - - - - - -
29/09:25am 14.4 SSW 17 28 1015.3 - 1.2 - - - - - - -
29/09:24am 15.5 SW 17 28 1015.1 - 0.8 - - - - - - -
29/09:00am 16.6 SW 17 20 1015.2 - 2.0 - - - - - - -
29/08:30am 16.4 SSW 18 23 1014.7 - 2.0 - - - - - - -
29/08:00am 16.0 SW 18 21 1014.6 - 2.0 - - - - - - -
29/07:30am 15.3 SW 19 21 1014.6 - 2.0 - - - - - - -
29/07:00am 16.9 SSW 13 18 1014.6 - 2.0 - - - - - - -
29/06:30am 16.6 S 16 20 1014.3 - 2.0 - - - - - - -
29/06:00am 16.4 S 16 20 1014.2 - 2.0 Recent precip. - - - - - -
29/05:30am 16.4 S 19 22 1014.1 - 2.0 - - - - - - -
29/05:00am 16.3 S 17 21 1013.9 - 1.8 - - - - - - -
29/04:30am 16.0 SSE 18 22 1013.9 - 1.8 - - - - - - -
29/04:00am 14.9 WSW 16 20 1014.0 - 1.8 - - - - - - -
29/03:30am 14.5 WSW 16 19 1014.4 - 1.8 - - - - - - -
29/03:00am 14.6 W 15 18 1014.7 - 1.8 - - - - - - -
29/02:30am 14.8 WSW 16 18 1015.0 - 1.8 - - - - - - -
29/02:00am 15.1 WSW 15 17 1015.5 - 1.8 - - - - - - -
29/01:30am 15.1 WSW 16 18 1015.8 - 1.8 - - - - - - -
29/01:00am 16.6 SSW 15 19 1015.9 - 1.8 - - - - - - -
29/12:30am 16.1 WSW 11 15 1016.2 - 1.8 - - - - - - -
29/12:00am 16.2 SW 13 16 1016.5 - 1.8 - - - - - - -
 
Date/Time
EDT
Temp

°C
Wind Pressure Rain
since 9am
mm
Weather Cloud Vis
km
Sea
Height
m
Swell
Dir
 
Speed
knots
Gust
knots
hPa Trend Height
m
Period
s
Dir
28/11:30pm 16.2 SW 14 19 1016.7 - 1.8 - - - - - - -
28/11:00pm 16.5 SW 16 22 1016.6 - 1.8 - - - - - - -
28/10:30pm 17.2 SSW 13 17 1017.0 - 1.8 - - - - - - -
28/10:00pm 17.6 S 19 23 1017.0 - 1.8 - - - - - - -
28/09:58pm 17.5 S 18 22 1016.9 - 1.8 - - - - - - -
28/09:30pm 16.5 SW 8 11 1017.3 - 1.8 - - - - - - -
28/09:00pm 16.5 SSW 12 14 1017.1 - 1.8 - - - - - - -
28/08:30pm 16.7 SW 12 14 1017.2 - 1.8 - - - - - - -
28/08:00pm 16.9 SSW 12 13 1016.9 - 1.8 - - - - - - -
28/07:30pm 17.3 S 15 18 1016.9 - 1.8 - - - - - - -
28/07:00pm 17.8 S 16 19 1016.7 - 1.8 - - - - - - -
28/06:30pm 18.1 S 11 13 1016.8 - 1.8 - - - - - - -
28/06:00pm 17.6 S 15 19 1016.8 - 1.8 - - - - - - -
28/05:30pm 17.4 SE 13 17 1016.9 - 1.8 - - - - - - -
28/05:09pm 19.0 S 23 28 1016.5 - 1.8 - - - - - - -
28/05:00pm 18.7 S 21 26 1016.1 - 1.8 - - - - - - -
28/04:30pm 19.3 S 17 21 1016.2 - 1.8 - - - - - - -
28/04:00pm 19.8 S 13 15 1016.2 - 1.8 - - - - - - -
28/03:30pm 20.3 S 12 16 1016.4 - 1.8 - - - - - - -
28/03:00pm 21.0 S 13 15 1016.6 - 1.8 - - - - - - -
28/02:30pm 19.6 SSW 9 11 1016.7 - 1.8 - - - - - - -
28/02:00pm 19.0 S 9 11 1016.7 - 1.8 - - - - - - -
28/01:30pm 21.0 SSE 11 13 1016.9 - 1.8 - - - - - - -
28/01:00pm 21.0 SSE 10 13 1017.0 - 1.8 - - - - - - -
28/12:30pm 19.2 S 2 8 1017.0 - 1.8 - - - - - - -
28/12:00pm 17.7 W 6 10 1017.1 - 1.8 - - - - - - -
28/11:30am 18.1 WNW 9 11 1017.1 - 1.8 - - - - - - -
28/11:00am 18.5 WNW 10 11 1017.2 - 1.8 - - - - - - -
28/10:30am 17.2 W 6 8 1017.2 - 1.8 - - - - - - -
28/10:00am 16.7 W 6 8 1017.3 - 1.8 - - - - - - -
28/09:30am 16.9 SW 7 10 1017.1 - 0.0 - - - - - - -
28/09:00am 17.3 SW 14 16 1016.6 - 1.6 - - - - - - -
28/08:30am 16.8 W 9 11 1016.4 - 1.6 - - - - - - -
28/08:00am 16.5 SW 3 4 1016.3 - 1.6 - - - - - - -
28/07:30am 16.4 S 13 17 1016.1 - 1.4 - - - - - - -
28/07:00am 17.1 SSE 8 10 1015.7 - 1.2 - - - - - - -
28/06:30am 16.3 SSW 14 16 1015.5 - 1.2 - - - - - - -
28/06:00am 16.4 SSW 18 20 1015.5 - 1.0 - - - - - - -
28/05:30am 16.9 SSW 16 18 1015.3 - 1.0 - - - - - - -
28/05:00am 17.3 SSW 17 20 1015.1 - 1.0 - - - - - - -
28/04:51am 17.7 SSW 16 20 1015.0 - 1.0 - - - - - - -
28/04:30am 17.5 SW 8 9 1015.0 - 1.0 - - - - - - -
28/04:00am 17.1 WSW 9 11 1015.0 - 1.0 - - - - - - -
28/03:30am 17.6 WSW 8 10 1015.2 - 1.0 - - - - - - -
28/03:00am 16.8 W 7 9 1015.3 - 1.0 - - - - - - -
28/02:30am 16.7 W 8 10 1015.7 - 1.0 - - - - - - -
28/02:00am 17.4 WSW 7 9 1016.0 - 1.0 - - - - - - -
28/01:30am 17.5 WSW 6 8 1016.2 - 1.0 - - - - - - -
28/01:00am 17.4 W 7 9 1016.3 - 1.0 - - - - - - -
28/12:30am 17.5 WSW 5 7 1016.4 - 1.0 - - - - - - -
28/12:00am 18.0 SSW 8 9 1016.5 - 1.0 - - - - - - -
 
Date/Time
EDT
Temp

°C
Wind Pressure Rain
since 9am
mm
Weather Cloud Vis
km
Sea
Height
m
Swell
Dir
 
Speed
knots
Gust
knots
hPa Trend Height
m
Period
s
Dir
27/11:30pm 18.1 SSW 7 8 1016.4 - 1.0 - - - - - - -
27/11:00pm 18.1 SSW 7 9 1016.4 - 1.0 - - - - - - -
27/10:30pm 18.1 SSW 8 9 1016.5 - 1.0 - - - - - - -
27/10:00pm 18.1 SW 5 6 1016.6 - 1.0 - - - - - - -
27/09:30pm 18.2 SSW 5 6 1016.4 - 1.0 - - - - - - -
27/09:00pm 18.1 S 4 5 1016.0 - 1.0 - - - - - - -
27/08:30pm 18.2 SSE 4 6 1016.0 - 1.0 - - - - - - -
27/08:00pm 18.2 SSE 3 5 1016.0 - 1.0 - - - - - - -
27/07:30pm 18.3 SSE 6 7 1015.8 - 1.0 - - - - - - -
27/07:00pm 18.5 SSE 4 5 1015.6 - 1.0 - - - - - - -
27/06:30pm 18.5 SSE 5 5 1015.3 - 1.0 - - - - - - -
27/06:00pm 18.4 SSE 4 5 1015.2 - 1.0 - - - - - - -
27/05:30pm 18.6 SSE 2 3 1015.5 - 1.0 - - - - - - -
27/05:00pm 19.0 CALM 0 0 1015.4 - 1.0 - - - - - - -
27/04:30pm 18.7 NNE 3 4 1015.4 - 1.0 - - - - - - -
27/04:00pm 18.7 NE 6 7 1015.6 - 1.0 - - - - - - -
27/03:30pm 18.5 ENE 8 9 1015.6 - 1.0 - - - - - - -
27/03:00pm 17.8 ENE 5 7 1015.9 - 1.0 - - - - - - -
27/02:30pm 17.3 ENE 6 8 1016.1 - 1.0 - - - - - - -
27/02:00pm 17.4 ENE 4 6 1016.3 - 1.0 - - - - - - -
27/01:30pm 16.8 ESE 5 7 1016.4 - 1.0 - - - - - - -
27/01:00pm 16.9 SE 7 8 1016.6 - 1.0 - - - - - - -
27/12:30pm 17.4 SSE 6 7 1016.6 - 0.2 - - - - - - -
27/12:00pm 18.3 ESE 5 7 1016.6 - 0.0 - - - - - - -
27/11:30am 18.9 E 6 7 1016.4 - 0.0 - - - - - - -
27/11:00am 18.8 E 5 8 1016.4 - 0.0 - - - - - - -
27/10:30am 18.5 ENE 7 8 1016.5 - 0.0 - - - - - - -
27/10:00am 17.4 WSW 4 6 1016.6 - 0.0 - - - - - - -
27/09:30am 17.1 W 6 7 1016.7 - 0.0 - - - - - - -
27/09:00am 16.9 W 6 7 1016.5 - 0.0 - - - - - - -
27/08:30am 16.5 W 6 8 1016.3 - 0.0 - - - - - - -
27/08:00am 16.4 W 7 9 1016.1 - 0.0 - - - - - - -
27/07:30am 16.3 W 8 9 1015.9 - 0.0 - - - - - - -
27/07:00am 16.3 W 6 8 1015.7 - 0.0 - - - - - - -
27/06:30am 16.1 W 7 9 1015.8 - 0.0 - - - - - - -
27/06:00am 16.0 W 8 9 1015.6 - 0.0 - - - - - - -
27/05:30am 16.1 W 7 8 1015.4 - 0.0 - - - - - - -
27/05:00am 16.1 W 7 8 1015.4 - 0.0 - - - - - - -
27/04:30am 15.9 W 6 8 1015.6 - 0.0 - - - - - - -
27/04:00am 16.0 W 7 9 1015.7 - 0.0 - - - - - - -
27/03:30am 16.0 W 8 10 1015.8 - 0.0 - - - - - - -
27/03:00am 16.1 W 9 10 1016.1 - 0.0 - - - - - - -
27/02:30am 16.1 W 8 9 1016.3 - 0.0 - - - - - - -
27/02:00am 16.1 W 7 8 1016.4 - 0.0 - - - - - - -
27/01:30am 16.1 W 2 7 1016.8 - 0.0 - - - - - - -
27/01:00am 16.2 CALM 0 0 1017.2 - 0.0 - - - - - - -
27/12:30am 16.5 CALM 0 0 1017.4 - 0.0 - - - - - - -
27/12:00am 16.7 WNW 3 3 1017.6 - 0.0 - - - - - - -
 
Date/Time
EDT
Temp

°C
Wind Pressure Rain
since 9am
mm
Weather Cloud Vis
km
Sea
Height
m
Swell
Dir
 
Speed
knots
Gust
knots
hPa Trend Height
m
Period
s
Dir
26/11:30pm 17.0 CALM 0 0 1017.7 - 0.0 - - - - - - -
26/11:00pm 17.3 ENE 2 3 1017.9 - 0.0 - - - - - - -
26/10:30pm 17.1 E 5 7 1018.0 - 0.0 - - - - - - -
26/10:00pm 17.3 S 5 9 1018.0 - 0.0 - - - - - - -
26/09:30pm 17.4 WSW 7 8 1017.8 - 0.0 - - - - - - -
26/09:00pm 17.5 SW 6 8 1017.6 - 0.0 - - - - - - -
26/08:30pm 17.7 SSW 7 10 1017.3 - 0.0 - - - - - - -
26/08:00pm 17.6 S 7 10 1017.0 - 0.0 - - - - - - -
26/07:30pm 17.6 S 9 11 1016.8 - 0.0 - - - - - - -
26/07:00pm 17.6 S 10 12 1016.3 - 0.0 - - - - - - -
26/06:30pm 17.8 S 11 13 1015.9 - 0.0 - - - - - - -
26/06:00pm 17.9 S 11 13 1015.7 - 0.0 - - - - - - -
26/05:30pm 18.1 S 12 15 1015.6 - 0.0 - - - - - - -
26/05:00pm 18.7 S 14 16 1015.6 - 0.0 - - - - - - -
26/04:30pm 18.5 S 14 15 1015.7 - 0.0 - - - - - - -
26/04:00pm 18.4 S 13 16 1015.8 - 0.0 - - - - - - -
26/03:30pm 19.0 S 13 16 1015.6 - 0.0 - - - - - - -
26/03:00pm 19.3 S 14 17 1015.5 - 0.0 - - - - - - -
26/02:30pm 19.1 S 14 17 1015.5 - 0.0 - - - - - - -
26/02:00pm 19.5 S 14 16 1015.6 - 0.0 - - - - - - -
26/01:30pm 19.1 S 13 15 1015.7 - 0.0 - - - - - - -
26/01:00pm 19.5 S 11 14 1016.1 - 0.0 - - - - - - -
26/12:30pm 19.5 S 9 12 1016.2 - 0.0 - - - - - - -
26/12:00pm 19.8 S 8 10 1016.1 - 0.0 - - - - - - -
26/11:30am 18.8 SSW 7 10 1016.1 - 0.0 - - - - - - -

Other Formats:

Comma delimited format used in spreadsheet applications
http://www.bom.gov.au/fwo/IDN60701/IDN60701.94934.axf

JavaScript Object Notation format (JSON) in row-major order
http://www.bom.gov.au/fwo/IDN60701/IDN60701.94934.json